createdAt,value
2019-05-13T00:00:23.354Z,0.00
2019-05-13T00:01:23.278Z,0.00
2019-05-13T00:02:23.575Z,0.00
2019-05-13T00:03:21.280Z,0.00
2019-05-13T00:04:21.268Z,0.00
2019-05-13T00:05:23.294Z,0.00
2019-05-13T00:06:21.244Z,0.00
2019-05-13T00:07:21.230Z,0.00
2019-05-13T00:08:21.918Z,0.00
2019-05-13T00:09:21.208Z,0.00
2019-05-13T00:10:21.198Z,0.00
2019-05-13T00:11:21.187Z,0.00
2019-05-13T00:12:21.172Z,0.00
2019-05-13T00:13:23.567Z,0.00
2019-05-13T00:14:21.149Z,0.00
2019-05-13T00:15:21.139Z,0.00
2019-05-13T00:16:23.359Z,0.00
2019-05-13T00:17:21.116Z,0.00
2019-05-13T00:18:23.313Z,0.00
2019-05-13T00:19:23.209Z,0.00
2019-05-13T00:20:21.084Z,0.00
2019-05-13T00:21:23.112Z,0.00
2019-05-13T00:22:23.374Z,0.00
2019-05-13T00:23:23.253Z,0.00
2019-05-13T00:24:21.037Z,0.00
2019-05-13T00:25:21.024Z,0.00
2019-05-13T00:26:21.012Z,0.00
2019-05-13T00:27:23.090Z,0.00
2019-05-13T00:28:23.120Z,0.00
2019-05-13T00:29:23.329Z,0.00
2019-05-13T00:30:23.409Z,0.00
2019-05-13T00:31:20.957Z,0.00
2019-05-13T00:32:20.943Z,0.00
2019-05-13T00:33:20.934Z,0.00
2019-05-13T00:34:20.921Z,0.00
2019-05-13T00:35:23.170Z,0.00
2019-05-13T00:36:20.900Z,0.00
2019-05-13T00:37:20.886Z,0.00
2019-05-13T00:38:20.877Z,0.00
2019-05-13T00:39:20.865Z,0.00
2019-05-13T00:40:20.872Z,0.00
2019-05-13T00:41:20.842Z,0.00
2019-05-13T00:42:20.833Z,0.00
2019-05-13T00:43:20.820Z,0.00
2019-05-13T00:44:20.808Z,0.00
2019-05-13T00:45:20.815Z,0.00
2019-05-13T00:46:20.786Z,0.00
2019-05-13T00:47:20.777Z,0.00
2019-05-13T00:48:20.761Z,0.00
2019-05-13T00:49:20.753Z,0.00
2019-05-13T00:50:20.757Z,0.00
2019-05-13T00:51:20.726Z,0.00
2019-05-13T00:52:20.717Z,0.00
2019-05-13T00:53:20.704Z,0.00
2019-05-13T00:54:20.710Z,0.00
2019-05-13T00:55:20.682Z,0.00
2019-05-13T00:56:20.671Z,0.00
2019-05-13T00:57:20.659Z,0.00
2019-05-13T00:58:20.653Z,0.00
2019-05-13T00:59:20.662Z,0.00
2019-05-13T01:00:20.628Z,0.00
2019-05-13T01:01:20.618Z,0.00
2019-05-13T01:02:20.609Z,0.00
2019-05-13T01:03:20.595Z,0.00
2019-05-13T01:04:20.582Z,0.00
2019-05-13T01:05:20.589Z,0.00
2019-05-13T01:06:20.558Z,0.00
2019-05-13T01:07:26.001Z,0.00
2019-05-13T01:08:23.484Z,0.00
2019-05-13T01:09:20.524Z,0.00
2019-05-13T01:10:20.534Z,0.00
2019-05-13T01:11:20.502Z,0.00
2019-05-13T01:12:20.490Z,0.00
2019-05-13T01:13:20.480Z,0.00
2019-05-13T01:14:20.469Z,0.00
2019-05-13T01:15:20.475Z,0.00
2019-05-13T01:16:20.444Z,0.00
2019-05-13T01:17:20.434Z,0.00
2019-05-13T01:18:20.430Z,0.00
2019-05-13T01:19:20.411Z,0.00
2019-05-13T01:20:20.420Z,0.00
2019-05-13T01:21:20.389Z,0.00
2019-05-13T01:22:20.376Z,0.00
2019-05-13T01:23:20.366Z,0.00
2019-05-13T01:24:20.356Z,0.00
2019-05-13T01:25:20.365Z,0.00
2019-05-13T01:26:20.332Z,0.00
2019-05-13T01:27:20.319Z,0.00
2019-05-13T01:28:20.309Z,0.00
2019-05-13T01:29:20.296Z,0.00
2019-05-13T01:30:20.285Z,0.00
2019-05-13T01:31:20.294Z,0.00
2019-05-13T01:32:20.265Z,0.00
2019-05-13T01:33:20.253Z,0.00
2019-05-13T01:34:20.239Z,0.00
2019-05-13T01:35:20.227Z,0.00
2019-05-13T01:36:20.236Z,0.00
2019-05-13T01:37:20.208Z,0.00
2019-05-13T01:38:20.194Z,0.00
2019-05-13T01:39:20.185Z,0.00
2019-05-13T01:40:20.173Z,0.00
2019-05-13T01:41:20.179Z,0.00
2019-05-13T01:42:20.149Z,0.00
2019-05-13T01:43:20.138Z,0.00
2019-05-13T01:44:20.128Z,0.00
2019-05-13T01:45:20.115Z,0.00
2019-05-13T01:46:20.124Z,0.00
2019-05-13T01:47:20.093Z,0.00
2019-05-13T01:48:20.082Z,0.00
2019-05-13T01:49:20.070Z,0.00
2019-05-13T01:50:20.057Z,0.00
2019-05-13T01:51:20.046Z,0.00
2019-05-13T01:52:20.053Z,0.00
2019-05-13T01:53:20.025Z,0.00
2019-05-13T01:54:20.014Z,0.00
2019-05-13T01:55:20.002Z,0.00
2019-05-13T01:56:19.990Z,0.00
2019-05-13T01:57:20.000Z,0.00
2019-05-13T01:58:19.968Z,0.00
2019-05-13T01:59:19.957Z,0.00
2019-05-13T02:00:19.955Z,0.00
2019-05-13T02:01:19.931Z,0.00
2019-05-13T02:02:19.940Z,0.00
2019-05-13T02:03:19.909Z,0.00
2019-05-13T02:04:19.897Z,0.00
2019-05-13T02:05:19.887Z,0.00
2019-05-13T02:06:19.877Z,0.00
2019-05-13T02:07:19.891Z,0.00
2019-05-13T02:08:19.852Z,0.00
2019-05-13T02:09:19.842Z,0.00
2019-05-13T02:10:19.830Z,0.00
2019-05-13T02:11:19.820Z,0.00
2019-05-13T02:12:19.807Z,0.00
2019-05-13T02:13:19.816Z,0.00
2019-05-13T02:14:19.786Z,0.00
2019-05-13T02:15:19.773Z,0.00
2019-05-13T02:16:19.762Z,0.00
2019-05-13T02:17:19.750Z,0.00
2019-05-13T02:18:19.760Z,0.00
2019-05-13T02:19:19.727Z,0.00
2019-05-13T02:20:19.715Z,0.00
2019-05-13T02:21:19.706Z,0.00
2019-05-13T02:22:19.697Z,0.00
2019-05-13T02:23:19.704Z,0.00
2019-05-13T02:24:19.671Z,0.00
2019-05-13T02:25:19.660Z,0.00
2019-05-13T02:26:19.650Z,0.00
2019-05-13T02:27:19.637Z,0.00
2019-05-13T02:28:19.650Z,0.00
2019-05-13T02:29:19.617Z,0.00
2019-05-13T02:30:19.602Z,0.00
2019-05-13T02:31:32.025Z,0.00
2019-05-13T02:32:23.468Z,0.00
2019-05-13T02:33:22.910Z,0.00
2019-05-13T02:34:22.981Z,0.00
2019-05-13T02:35:22.981Z,0.00
2019-05-13T02:36:22.720Z,0.00
2019-05-13T02:37:22.919Z,0.00
2019-05-13T02:38:28.376Z,0.00
2019-05-13T02:39:22.368Z,0.00
2019-05-13T02:40:22.526Z,0.00
2019-05-13T02:41:22.569Z,0.00
2019-05-13T02:42:22.638Z,0.00
2019-05-13T02:43:22.747Z,0.00
2019-05-13T02:44:22.369Z,0.00
2019-05-13T02:45:22.543Z,0.00
2019-05-13T02:46:22.380Z,0.00
2019-05-13T02:47:22.405Z,0.00
2019-05-13T02:48:22.881Z,0.00
2019-05-13T02:49:22.883Z,0.00
2019-05-13T02:50:22.370Z,0.00
2019-05-13T02:51:22.712Z,0.00
2019-05-13T02:52:22.265Z,0.00
2019-05-13T02:53:19.345Z,0.00
2019-05-13T02:54:22.716Z,0.00
2019-05-13T02:55:22.176Z,0.00
2019-05-13T02:56:22.391Z,0.00
2019-05-13T02:57:19.297Z,0.00
2019-05-13T02:58:23.616Z,0.00
2019-05-13T02:59:22.710Z,0.00
2019-05-13T03:00:19.289Z,0.00
2019-05-13T03:01:22.089Z,0.00
2019-05-13T03:02:22.197Z,0.00
2019-05-13T03:03:22.693Z,0.00
2019-05-13T03:04:19.217Z,0.00
2019-05-13T03:05:21.866Z,0.00
2019-05-13T03:06:22.146Z,0.00
2019-05-13T03:07:23.000Z,0.00
2019-05-13T03:08:35.212Z,0.00
2019-05-13T03:09:23.008Z,0.00
2019-05-13T03:10:22.205Z,0.00
2019-05-13T03:11:22.502Z,0.00
2019-05-13T03:12:19.123Z,0.00
2019-05-13T03:13:19.126Z,0.00
2019-05-13T03:14:19.104Z,0.00
2019-05-13T03:15:19.095Z,0.00
2019-05-13T03:16:19.121Z,0.00
2019-05-13T03:17:22.070Z,0.00
2019-05-13T03:18:22.304Z,0.00
2019-05-13T03:19:22.188Z,0.00
2019-05-13T03:20:22.388Z,0.00
2019-05-13T03:21:22.903Z,0.00
2019-05-13T03:22:22.149Z,0.00
2019-05-13T03:23:22.447Z,0.00
2019-05-13T03:24:22.395Z,0.00
2019-05-13T03:25:22.232Z,0.00
2019-05-13T03:26:18.968Z,0.00
2019-05-13T03:27:20.689Z,0.00
2019-05-13T03:28:22.297Z,0.00
2019-05-13T03:29:21.972Z,0.00
2019-05-13T03:30:24.451Z,0.00
2019-05-13T03:31:25.621Z,0.00
2019-05-13T03:32:25.736Z,0.00
2019-05-13T03:33:26.821Z,5.62
2019-05-13T03:34:25.535Z,5.62
2019-05-13T03:35:25.778Z,5.62
2019-05-13T03:36:25.289Z,5.62
2019-05-13T03:37:25.516Z,5.62
2019-05-13T03:38:22.533Z,5.62
2019-05-13T03:39:18.821Z,5.62
2019-05-13T03:40:18.808Z,11.25
2019-05-13T03:41:18.813Z,11.25
2019-05-13T03:42:18.784Z,11.25
2019-05-13T03:43:18.789Z,11.25
2019-05-13T03:44:18.774Z,11.25
2019-05-13T03:45:21.803Z,11.25
2019-05-13T03:46:18.739Z,16.88
2019-05-13T03:47:18.726Z,16.88
2019-05-13T03:48:18.731Z,16.88
2019-05-13T03:49:18.701Z,16.88
2019-05-13T03:50:18.691Z,22.50
2019-05-13T03:51:21.944Z,22.50
2019-05-13T03:52:18.670Z,22.50
2019-05-13T03:53:18.673Z,22.50
2019-05-13T03:54:18.644Z,28.12
2019-05-13T03:55:18.633Z,28.12
2019-05-13T03:56:18.626Z,28.12
2019-05-13T03:57:18.623Z,28.12
2019-05-13T03:58:18.688Z,33.75
2019-05-13T03:59:18.599Z,33.75
2019-05-13T04:00:18.575Z,33.75
2019-05-13T04:01:18.583Z,39.38
2019-05-13T04:02:18.560Z,39.38
2019-05-13T04:03:18.582Z,39.38
2019-05-13T04:04:18.538Z,45.00
2019-05-13T04:05:22.446Z,45.00
2019-05-13T04:06:18.512Z,45.00
2019-05-13T04:07:18.503Z,50.62
2019-05-13T04:08:18.495Z,50.62
2019-05-13T04:09:29.639Z,50.62
2019-05-13T04:10:22.428Z,56.25
2019-05-13T04:11:18.452Z,56.25
2019-05-13T04:12:18.444Z,61.88
2019-05-13T04:13:18.433Z,61.88
2019-05-13T04:14:18.449Z,61.88
2019-05-13T04:15:18.403Z,67.50
2019-05-13T04:16:18.403Z,67.50
2019-05-13T04:17:18.396Z,73.12
2019-05-13T04:18:18.372Z,73.12
2019-05-13T04:19:18.376Z,78.75
2019-05-13T04:20:18.367Z,78.75
2019-05-13T04:21:18.340Z,78.75
2019-05-13T04:22:18.324Z,78.75
2019-05-13T04:23:18.330Z,90.00
2019-05-13T04:24:18.316Z,90.00
2019-05-13T04:25:18.309Z,95.62
2019-05-13T04:26:18.289Z,95.62
2019-05-13T04:27:18.270Z,95.62
2019-05-13T04:28:18.256Z,101.25
2019-05-13T04:29:18.246Z,101.25
2019-05-13T04:30:18.251Z,101.25
2019-05-13T04:31:18.222Z,101.25
2019-05-13T04:32:18.209Z,106.88
2019-05-13T04:33:18.200Z,106.88
2019-05-13T04:34:18.187Z,112.50
2019-05-13T04:35:18.195Z,112.50
2019-05-13T04:36:18.165Z,112.50
2019-05-13T04:37:18.155Z,118.12
2019-05-13T04:38:18.143Z,123.75
2019-05-13T04:39:38.966Z,123.75
2019-05-13T04:40:22.627Z,129.38
2019-05-13T04:41:18.110Z,129.38
2019-05-13T04:42:18.105Z,135.00
2019-05-13T04:43:18.086Z,135.00
2019-05-13T04:44:18.076Z,140.62
2019-05-13T04:45:18.085Z,140.62
2019-05-13T04:46:18.053Z,146.25
2019-05-13T04:47:18.039Z,157.50
2019-05-13T04:48:18.029Z,157.50
2019-05-13T04:49:18.019Z,163.12
2019-05-13T04:50:18.006Z,163.12
2019-05-13T04:51:18.029Z,168.75
2019-05-13T04:52:17.983Z,168.75
2019-05-13T04:53:17.968Z,163.12
2019-05-13T04:54:17.965Z,168.75
2019-05-13T04:55:17.950Z,174.38
2019-05-13T04:56:17.962Z,180.00
2019-05-13T04:57:17.929Z,174.38
2019-05-13T04:58:17.915Z,191.25
2019-05-13T04:59:17.903Z,196.88
2019-05-13T05:00:17.897Z,208.12
2019-05-13T05:01:17.920Z,213.75
2019-05-13T05:02:17.883Z,213.75
2019-05-13T05:03:32.993Z,213.75
2019-05-13T05:04:24.456Z,213.75
2019-05-13T05:05:22.207Z,219.38
2019-05-13T05:06:17.825Z,219.38
2019-05-13T05:07:17.833Z,225.00
2019-05-13T05:08:17.804Z,230.62
2019-05-13T05:09:17.789Z,230.62
2019-05-13T05:10:30.533Z,230.62
2019-05-13T05:11:22.012Z,219.38
2019-05-13T05:12:17.775Z,230.62
2019-05-13T05:13:17.745Z,230.62
2019-05-13T05:14:17.732Z,230.62
2019-05-13T05:15:17.720Z,230.62
2019-05-13T05:16:17.721Z,219.38
2019-05-13T05:17:17.731Z,236.25
2019-05-13T05:18:17.691Z,241.88
2019-05-13T05:19:17.676Z,241.88
2019-05-13T05:20:17.673Z,247.50
2019-05-13T05:21:17.649Z,247.50
2019-05-13T05:22:17.670Z,247.50
2019-05-13T05:23:17.626Z,241.88
2019-05-13T05:24:17.617Z,247.50
2019-05-13T05:25:17.606Z,247.50
2019-05-13T05:26:17.594Z,247.50
2019-05-13T05:27:17.626Z,253.12
2019-05-13T05:28:17.573Z,264.38
2019-05-13T05:29:17.559Z,264.38
2019-05-13T05:30:17.546Z,275.62
2019-05-13T05:31:17.535Z,281.25
2019-05-13T05:32:17.525Z,286.88
2019-05-13T05:33:17.532Z,298.12
2019-05-13T05:34:17.503Z,309.38
2019-05-13T05:35:17.498Z,326.25
2019-05-13T05:36:17.479Z,326.25
2019-05-13T05:37:17.487Z,331.88
2019-05-13T05:38:17.461Z,331.88
2019-05-13T05:39:17.444Z,331.88
2019-05-13T05:40:31.014Z,337.50
2019-05-13T05:41:18.425Z,354.38
2019-05-13T05:42:17.451Z,360.00
2019-05-13T05:43:17.400Z,365.62
2019-05-13T05:44:17.388Z,365.62
2019-05-13T05:45:17.388Z,371.25
2019-05-13T05:46:17.369Z,371.25
2019-05-13T05:47:17.374Z,382.50
2019-05-13T05:48:17.345Z,405.00
2019-05-13T05:49:17.332Z,421.88
2019-05-13T05:50:17.322Z,416.25
2019-05-13T05:51:17.310Z,416.25
2019-05-13T05:52:17.315Z,399.38
2019-05-13T05:53:17.286Z,410.62
2019-05-13T05:54:17.274Z,438.75
2019-05-13T05:55:17.262Z,433.12
2019-05-13T05:56:17.251Z,450.00
2019-05-13T05:57:17.268Z,450.00
2019-05-13T05:58:17.281Z,466.88
2019-05-13T05:59:17.217Z,483.75
2019-05-13T06:00:17.220Z,495.00
2019-05-13T06:01:17.193Z,495.00
2019-05-13T06:02:17.180Z,489.38
2019-05-13T06:03:17.193Z,489.38
2019-05-13T06:04:17.159Z,500.62
2019-05-13T06:05:17.148Z,506.25
2019-05-13T06:06:17.136Z,506.25
2019-05-13T06:07:17.124Z,517.50
2019-05-13T06:08:17.890Z,511.88
2019-05-13T06:09:17.107Z,511.88
2019-05-13T06:10:17.100Z,511.88
2019-05-13T06:11:17.076Z,523.12
2019-05-13T06:12:17.065Z,523.12
2019-05-13T06:13:17.078Z,545.62
2019-05-13T06:14:17.049Z,545.62
2019-05-13T06:15:17.031Z,545.62
2019-05-13T06:16:17.020Z,556.88
2019-05-13T06:17:17.010Z,573.75
2019-05-13T06:18:17.018Z,579.38
2019-05-13T06:19:18.006Z,596.25
2019-05-13T06:20:16.976Z,630.00
2019-05-13T06:21:16.969Z,736.88
2019-05-13T06:22:16.961Z,838.12
2019-05-13T06:23:16.962Z,939.38
2019-05-13T06:24:16.930Z,877.50
2019-05-13T06:25:16.919Z,973.12
2019-05-13T06:26:16.908Z,911.25
2019-05-13T06:27:16.901Z,945.00
2019-05-13T06:28:16.901Z,360.00
2019-05-13T06:29:16.907Z,956.25
2019-05-13T06:30:16.863Z,826.88
2019-05-13T06:31:16.849Z,804.38
2019-05-13T06:32:22.480Z,860.62
2019-05-13T06:33:17.862Z,939.38
2019-05-13T06:34:16.814Z,990.00
2019-05-13T06:35:16.800Z,1006.88
2019-05-13T06:36:16.789Z,928.12
2019-05-13T06:37:16.777Z,961.88
2019-05-13T06:38:16.764Z,871.88
2019-05-13T06:39:16.776Z,990.00
2019-05-13T06:40:16.742Z,1051.88
2019-05-13T06:41:16.730Z,1170.00
2019-05-13T06:42:16.725Z,1305.00
2019-05-13T06:43:16.708Z,1271.25
2019-05-13T06:44:16.714Z,1248.75
2019-05-13T06:45:16.685Z,1333.12
2019-05-13T06:46:16.677Z,1535.62
2019-05-13T06:47:16.661Z,1417.50
2019-05-13T06:48:16.648Z,1209.38
2019-05-13T06:49:16.679Z,1147.50
2019-05-13T06:50:16.626Z,1395.00
2019-05-13T06:51:16.618Z,1417.50
2019-05-13T06:52:16.605Z,1271.25
2019-05-13T06:53:16.592Z,1158.75
2019-05-13T06:54:16.583Z,1288.12
2019-05-13T06:55:16.591Z,1271.25
2019-05-13T06:56:16.557Z,1080.00
2019-05-13T06:57:16.546Z,1378.12
2019-05-13T06:58:16.537Z,1383.75
2019-05-13T06:59:16.528Z,1254.38
2019-05-13T07:00:16.531Z,1237.50
2019-05-13T07:01:16.500Z,1260.00
2019-05-13T07:02:16.487Z,1254.38
2019-05-13T07:03:16.476Z,1141.88
2019-05-13T07:04:16.464Z,1361.25
2019-05-13T07:05:16.473Z,1276.88
2019-05-13T07:06:16.442Z,1333.12
2019-05-13T07:07:17.489Z,1423.12
2019-05-13T07:08:16.419Z,1288.12
2019-05-13T07:09:16.407Z,1389.38
2019-05-13T07:10:16.416Z,1215.00
2019-05-13T07:11:21.073Z,1271.25
2019-05-13T07:12:17.400Z,1344.38
2019-05-13T07:13:16.363Z,1603.12
2019-05-13T07:14:16.351Z,1569.38
2019-05-13T07:15:16.359Z,1361.25
2019-05-13T07:16:16.326Z,2131.88
2019-05-13T07:17:16.316Z,2261.25
2019-05-13T07:18:16.503Z,2041.88
2019-05-13T07:19:16.294Z,1805.62
2019-05-13T07:20:16.301Z,1338.75
2019-05-13T07:21:16.271Z,1310.62
2019-05-13T07:22:16.257Z,1226.25
2019-05-13T07:23:16.247Z,1186.88
2019-05-13T07:24:16.233Z,1350.00
2019-05-13T07:25:16.240Z,1293.75
2019-05-13T07:26:16.209Z,1451.25
2019-05-13T07:27:16.200Z,1473.75
2019-05-13T07:28:16.197Z,1513.12
2019-05-13T07:29:16.610Z,1569.38
2019-05-13T07:30:16.198Z,1490.62
2019-05-13T07:31:16.156Z,1468.12
2019-05-13T07:32:16.144Z,1395.00
2019-05-13T07:33:16.142Z,1811.25
2019-05-13T07:34:16.123Z,1783.12
2019-05-13T07:35:16.122Z,1850.62
2019-05-13T07:36:16.113Z,1895.62
2019-05-13T07:37:16.084Z,2013.75
2019-05-13T07:38:16.073Z,1687.50
2019-05-13T07:39:16.063Z,1693.12
2019-05-13T07:40:16.072Z,1231.88
2019-05-13T07:41:16.060Z,2103.75
2019-05-13T07:42:16.032Z,2289.38
2019-05-13T07:43:16.017Z,2362.50
2019-05-13T07:44:16.006Z,1929.38
2019-05-13T07:45:16.006Z,2356.88
2019-05-13T07:46:16.004Z,2435.62
2019-05-13T07:47:16.207Z,2300.62
2019-05-13T07:48:21.330Z,2300.62
2019-05-13T07:49:16.951Z,2818.12
2019-05-13T07:50:15.938Z,2199.38
2019-05-13T07:51:15.958Z,2553.75
2019-05-13T07:52:15.917Z,2278.12
2019-05-13T07:53:18.977Z,2536.88
2019-05-13T07:54:15.894Z,2610.00
2019-05-13T07:55:15.880Z,2773.12
2019-05-13T07:56:15.870Z,2880.00
2019-05-13T07:57:15.878Z,2812.50
2019-05-13T07:58:15.849Z,3026.25
2019-05-13T07:59:15.838Z,2626.88
2019-05-13T08:00:15.826Z,2778.75
2019-05-13T08:01:15.814Z,2565.00
2019-05-13T08:02:15.822Z,2902.50
2019-05-13T08:03:15.792Z,2936.25
2019-05-13T08:04:22.254Z,2778.75
2019-05-13T08:05:16.772Z,2722.50
2019-05-13T08:06:15.762Z,2790.00
2019-05-13T08:07:15.768Z,2885.62
2019-05-13T08:08:15.739Z,2604.38
2019-05-13T08:09:15.730Z,2385.00
2019-05-13T08:10:15.715Z,2643.75
2019-05-13T08:11:15.706Z,2761.88
2019-05-13T08:12:15.871Z,3003.75
2019-05-13T08:13:15.696Z,2677.50
2019-05-13T08:14:15.673Z,2503.12
2019-05-13T08:15:15.693Z,2868.75
2019-05-13T08:16:15.652Z,2958.75
2019-05-13T08:17:15.874Z,2587.50
2019-05-13T08:18:15.688Z,2767.50
2019-05-13T08:19:15.619Z,2311.88
2019-05-13T08:20:15.608Z,2801.25
2019-05-13T08:21:15.597Z,2739.38
2019-05-13T08:22:15.610Z,2525.62
2019-05-13T08:23:15.576Z,2626.88
2019-05-13T08:24:15.562Z,2801.25
2019-05-13T08:25:15.555Z,3009.38
2019-05-13T08:26:15.542Z,3076.88
2019-05-13T08:27:15.533Z,2548.12
2019-05-13T08:28:15.540Z,1603.12
2019-05-13T08:29:15.511Z,2604.38
2019-05-13T08:30:18.073Z,2851.88
2019-05-13T08:31:15.492Z,2655.00
2019-05-13T08:32:15.483Z,2548.12
2019-05-13T08:33:15.496Z,2373.75
2019-05-13T08:34:15.460Z,2542.50
2019-05-13T08:35:15.451Z,2503.12
2019-05-13T08:36:15.439Z,2368.12
2019-05-13T08:37:15.426Z,2542.50
2019-05-13T08:38:15.436Z,2525.62
2019-05-13T08:39:15.409Z,2621.25
2019-05-13T08:40:15.397Z,2559.38
2019-05-13T08:41:19.384Z,2491.88
2019-05-13T08:42:19.840Z,2525.62
2019-05-13T08:43:16.444Z,2070.00
2019-05-13T08:44:15.352Z,2160.00
2019-05-13T08:45:15.343Z,2283.75
2019-05-13T08:46:15.334Z,2250.00
2019-05-13T08:47:15.322Z,2255.62
2019-05-13T08:48:15.312Z,2233.12
2019-05-13T08:49:15.321Z,2227.50
2019-05-13T08:50:15.291Z,2176.88
2019-05-13T08:51:15.282Z,2165.62
2019-05-13T08:52:15.317Z,2137.50
2019-05-13T08:53:15.263Z,2148.75
2019-05-13T08:54:15.269Z,2143.12
2019-05-13T08:55:16.243Z,2176.88
2019-05-13T08:56:15.231Z,2075.62
2019-05-13T08:57:15.221Z,1805.62
2019-05-13T08:58:15.211Z,2086.88
2019-05-13T08:59:15.220Z,2323.12
2019-05-13T09:00:15.187Z,3116.25
2019-05-13T09:01:15.178Z,4005.00
2019-05-13T09:02:15.171Z,4331.25
2019-05-13T09:03:15.165Z,4477.50
2019-05-13T09:04:15.190Z,3982.50
2019-05-13T09:05:15.141Z,3313.12
2019-05-13T09:06:15.130Z,3099.38
2019-05-13T09:07:15.120Z,3273.75
2019-05-13T09:08:15.108Z,3408.75
2019-05-13T09:09:15.097Z,2216.25
2019-05-13T09:10:15.108Z,3363.75
2019-05-13T09:11:15.077Z,3358.12
2019-05-13T09:12:28.694Z,3971.25
2019-05-13T09:13:16.055Z,4151.25
2019-05-13T09:14:15.049Z,4258.12
2019-05-13T09:15:15.060Z,4128.75
2019-05-13T09:16:15.027Z,4590.00
2019-05-13T09:17:15.019Z,4640.62
2019-05-13T09:18:15.029Z,4713.75
2019-05-13T09:19:16.215Z,4831.88
2019-05-13T09:20:15.008Z,4820.62
2019-05-13T09:21:14.982Z,4775.62
2019-05-13T09:22:14.974Z,4837.50
2019-05-13T09:23:14.958Z,4927.50
2019-05-13T09:24:25.401Z,4100.62
2019-05-13T09:25:15.970Z,4038.75
2019-05-13T09:26:14.932Z,5068.12
2019-05-13T09:27:14.922Z,5135.62
2019-05-13T09:28:14.912Z,5180.62
2019-05-13T09:29:14.901Z,4933.12
2019-05-13T09:30:14.893Z,4995.00
2019-05-13T09:31:14.903Z,5310.00
2019-05-13T09:32:14.883Z,5518.12
2019-05-13T09:33:14.866Z,5450.62
2019-05-13T09:34:14.853Z,5501.25
2019-05-13T09:35:14.847Z,5321.25
2019-05-13T09:36:14.852Z,5141.25
2019-05-13T09:37:14.825Z,5135.62
2019-05-13T09:38:14.837Z,5529.38
2019-05-13T09:39:14.810Z,5428.12
2019-05-13T09:40:14.796Z,5563.12
2019-05-13T09:41:14.807Z,5062.50
2019-05-13T09:42:14.775Z,5602.50
2019-05-13T09:43:14.766Z,5686.88
2019-05-13T09:44:14.756Z,5191.88
2019-05-13T09:45:14.744Z,4910.62
2019-05-13T09:46:14.754Z,4770.00
2019-05-13T09:47:14.726Z,5304.38
2019-05-13T09:48:14.713Z,5068.12
2019-05-13T09:49:19.653Z,4680.00
2019-05-13T09:50:28.482Z,5068.12
2019-05-13T09:51:15.708Z,4860.00
2019-05-13T09:52:14.676Z,4983.75
2019-05-13T09:53:14.667Z,4533.75
2019-05-13T09:54:14.658Z,4612.50
2019-05-13T09:55:25.295Z,4781.25
2019-05-13T09:56:15.660Z,4691.25
2019-05-13T09:57:14.628Z,4635.00
2019-05-13T09:58:14.619Z,4713.75
2019-05-13T09:59:14.610Z,4770.00
2019-05-13T10:00:14.612Z,4668.75
2019-05-13T10:01:14.589Z,4606.88
2019-05-13T10:02:14.622Z,4815.00
2019-05-13T10:03:14.573Z,4736.25
2019-05-13T10:04:14.555Z,4651.88
2019-05-13T10:05:14.556Z,4916.25
2019-05-13T10:06:14.537Z,5158.12
2019-05-13T10:07:14.550Z,5028.75
2019-05-13T10:08:14.520Z,5000.62
2019-05-13T10:09:14.508Z,4809.38
2019-05-13T10:10:14.499Z,4753.12
2019-05-13T10:11:14.490Z,4938.75
2019-05-13T10:12:14.499Z,4860.00
2019-05-13T10:13:15.665Z,4781.25
2019-05-13T10:14:14.466Z,4770.00
2019-05-13T10:15:14.449Z,4837.50
2019-05-13T10:16:14.438Z,4741.88
2019-05-13T10:17:14.431Z,4410.00
2019-05-13T10:18:14.438Z,4651.88
2019-05-13T10:19:14.407Z,4713.75
2019-05-13T10:20:14.401Z,4837.50
2019-05-13T10:21:14.389Z,4398.75
2019-05-13T10:22:14.380Z,4747.50
2019-05-13T10:23:14.385Z,4606.88
2019-05-13T10:24:14.361Z,4871.25
2019-05-13T10:25:14.349Z,4342.50
2019-05-13T10:26:14.693Z,4365.00
2019-05-13T10:27:18.631Z,4657.50
2019-05-13T10:28:14.337Z,4370.62
2019-05-13T10:29:14.314Z,4342.50
2019-05-13T10:30:14.301Z,4393.12
2019-05-13T10:31:14.289Z,4426.88
2019-05-13T10:32:14.286Z,4505.62
2019-05-13T10:33:14.297Z,4556.25
2019-05-13T10:34:14.370Z,4421.25
2019-05-13T10:35:14.249Z,4477.50
2019-05-13T10:36:14.239Z,3397.50
2019-05-13T10:37:14.230Z,4843.12
2019-05-13T10:38:14.229Z,4893.75
2019-05-13T10:39:14.228Z,4938.75
2019-05-13T10:40:14.200Z,4590.00
2019-05-13T10:41:14.190Z,4826.25
2019-05-13T10:42:14.179Z,4927.50
2019-05-13T10:43:29.351Z,5090.62
2019-05-13T10:44:15.177Z,4899.38
2019-05-13T10:45:14.193Z,5197.50
2019-05-13T10:46:14.142Z,5085.00
2019-05-13T10:47:14.139Z,4905.00
2019-05-13T10:48:14.121Z,4921.88
2019-05-13T10:49:14.132Z,5073.75
2019-05-13T10:50:14.101Z,4972.50
2019-05-13T10:51:14.092Z,4905.00
2019-05-13T10:52:14.081Z,5056.88
2019-05-13T10:53:14.072Z,5079.38
2019-05-13T10:54:14.080Z,5113.12
2019-05-13T10:55:14.064Z,5208.75
2019-05-13T10:56:14.044Z,5315.62
2019-05-13T10:57:14.043Z,5253.75
2019-05-13T10:58:14.044Z,5011.88
2019-05-13T10:59:14.030Z,5017.50
2019-05-13T11:00:14.001Z,5186.25
2019-05-13T11:01:14.006Z,5113.12
2019-05-13T11:02:13.992Z,5011.88
2019-05-13T11:03:13.968Z,5040.00
2019-05-13T11:04:14.092Z,5000.62
2019-05-13T11:05:22.833Z,4966.88
2019-05-13T11:06:13.941Z,4505.62
2019-05-13T11:07:13.928Z,4415.62
2019-05-13T11:08:13.917Z,5304.38
2019-05-13T11:09:13.930Z,5338.12
2019-05-13T11:10:13.897Z,5253.75
2019-05-13T11:11:13.886Z,5056.88
2019-05-13T11:12:13.877Z,4809.38
2019-05-13T11:13:13.868Z,4612.50
2019-05-13T11:14:15.797Z,4252.50
2019-05-13T11:15:13.849Z,3813.75
2019-05-13T11:16:13.837Z,3566.25
2019-05-13T11:17:13.857Z,3487.50
2019-05-13T11:18:18.962Z,3605.62
2019-05-13T11:19:14.828Z,3898.12
2019-05-13T11:20:13.799Z,4320.00
2019-05-13T11:21:13.789Z,4606.88
2019-05-13T11:22:13.780Z,4516.88
2019-05-13T11:23:13.769Z,4078.12
2019-05-13T11:24:13.777Z,3926.25
2019-05-13T11:25:13.815Z,3825.00
2019-05-13T11:26:13.739Z,3993.75
2019-05-13T11:27:13.732Z,4083.75
2019-05-13T11:28:13.721Z,4038.75
2019-05-13T11:29:13.727Z,4173.75
2019-05-13T11:30:13.700Z,4320.00
2019-05-13T11:31:13.689Z,4477.50
2019-05-13T11:32:13.692Z,4561.88
2019-05-13T11:33:13.671Z,4331.25
2019-05-13T11:34:13.676Z,4185.00
2019-05-13T11:35:13.650Z,4297.50
2019-05-13T11:36:18.924Z,4168.12
2019-05-13T11:37:14.651Z,3892.50
2019-05-13T11:38:13.617Z,3735.00
2019-05-13T11:39:13.631Z,3555.00
2019-05-13T11:40:13.596Z,3425.62
2019-05-13T11:41:13.585Z,3493.12
2019-05-13T11:42:14.038Z,3605.62
2019-05-13T11:43:13.563Z,3616.88
2019-05-13T11:44:16.636Z,3780.00
2019-05-13T11:45:13.564Z,3864.38
2019-05-13T11:46:13.534Z,3943.12
2019-05-13T11:47:13.522Z,4106.25
2019-05-13T11:48:13.510Z,4241.25
2019-05-13T11:49:13.501Z,4263.75
2019-05-13T11:50:13.508Z,4381.88
2019-05-13T11:51:13.557Z,4100.62
2019-05-13T11:52:13.472Z,3943.12
2019-05-13T11:53:31.403Z,4370.62
2019-05-13T11:54:14.447Z,4556.25
2019-05-13T11:55:13.459Z,4365.00
2019-05-13T11:56:13.428Z,4432.50
2019-05-13T11:57:13.418Z,4269.38
2019-05-13T11:58:14.103Z,4320.00
2019-05-13T11:59:14.188Z,4584.38
2019-05-13T12:00:13.766Z,4590.00
2019-05-13T12:01:13.391Z,4471.88
2019-05-13T12:02:13.993Z,4477.50
2019-05-13T12:03:13.355Z,4500.00
2019-05-13T12:04:13.342Z,4522.50
2019-05-13T12:05:13.331Z,4500.00
2019-05-13T12:06:13.436Z,4325.62
2019-05-13T12:07:13.679Z,4342.50
2019-05-13T12:08:13.300Z,4376.25
2019-05-13T12:09:13.520Z,4275.00
2019-05-13T12:10:13.281Z,4314.38
2019-05-13T12:11:14.029Z,4432.50
2019-05-13T12:12:13.903Z,4235.62
2019-05-13T12:13:13.247Z,4061.25
2019-05-13T12:15:28.965Z,4168.12
2019-05-13T12:16:14.238Z,4275.00
2019-05-13T12:17:14.227Z,4246.88
2019-05-13T12:18:13.193Z,4117.50
2019-05-13T12:19:13.184Z,4111.88
2019-05-13T12:20:13.173Z,4185.00
2019-05-13T12:21:13.160Z,4100.62
2019-05-13T12:22:13.442Z,4100.62
2019-05-13T12:23:13.235Z,4050.00
2019-05-13T12:24:13.131Z,3898.12
2019-05-13T12:25:14.039Z,3948.75
2019-05-13T12:26:13.177Z,4033.12
2019-05-13T12:27:13.119Z,4005.00
2019-05-13T12:28:13.089Z,4089.38
2019-05-13T12:29:18.589Z,4162.50
2019-05-13T12:30:14.102Z,4168.12
2019-05-13T12:31:13.057Z,4083.75
2019-05-13T12:32:13.775Z,4010.62
2019-05-13T12:33:13.661Z,4050.00